Terminal Aerodrome Forecast
Issued by NWS Green Bay, WI

Home | Current Version | Previous Version | Graphics & Text | Print | Product List | Glossary On
Versions: 1 2 3 4 5 6 7 8 9 10 11 12 13 14 15 16 17 18 19 20 21
000
FTUS43 KGRB 291355 AAB
TAFGRB
TAF AMD
KGRB 291355Z 2914/3012 02007KT P6SM VCSH OVC008
     FM291600 05008KT P6SM SCT015 BKN050
     FM291900 06010KT P6SM BKN060
     FM300200 04006KT P6SM SCT060 BKN120=

USA.gov is the U.S. government's official web portal to all federal, state and local government web resources and services.